createdAt,value
2019-05-28T00:00:13.679Z,13.00
2019-05-28T00:02:45.936Z,12.90
2019-05-28T00:05:18.283Z,12.90
2019-05-28T00:07:51.020Z,13.00
2019-05-28T00:10:23.003Z,13.00
2019-05-28T00:12:53.929Z,12.90
2019-05-28T00:15:24.700Z,12.80
2019-05-28T00:17:55.543Z,12.80
2019-05-28T00:20:26.357Z,12.70
2019-05-28T00:22:57.175Z,12.70
2019-05-28T00:25:29.408Z,12.70
2019-05-28T00:28:01.599Z,12.70
2019-05-28T00:30:32.589Z,12.80
2019-05-28T00:33:03.373Z,12.80
2019-05-28T00:35:34.234Z,12.80
2019-05-28T00:38:04.978Z,12.60
2019-05-28T00:40:35.950Z,12.40
2019-05-28T00:43:06.822Z,12.30
2019-05-28T00:45:37.586Z,12.20
2019-05-28T00:48:08.412Z,12.20
2019-05-28T00:50:39.200Z,12.20
2019-05-28T00:53:09.983Z,12.20
2019-05-28T00:55:41.660Z,12.20
2019-05-28T00:58:12.769Z,12.10
2019-05-28T01:00:48.643Z,12.20
2019-05-28T01:03:23.419Z,12.30
2019-05-28T01:05:54.243Z,12.40
2019-05-28T01:08:25.040Z,12.40
2019-05-28T01:10:55.835Z,12.40
2019-05-28T01:13:26.955Z,12.40
2019-05-28T01:15:57.763Z,12.50
2019-05-28T01:18:28.573Z,12.60
2019-05-28T01:20:59.390Z,12.70
2019-05-28T01:23:30.270Z,12.60
2019-05-28T01:26:01.284Z,12.60
2019-05-28T01:28:32.099Z,12.70
2019-05-28T01:31:02.982Z,12.80
2019-05-28T01:33:33.809Z,12.80
2019-05-28T01:36:04.701Z,12.80
2019-05-28T01:38:35.539Z,12.80
2019-05-28T01:41:06.392Z,12.80
2019-05-28T01:43:37.154Z,12.80
2019-05-28T01:46:10.225Z,12.60
2019-05-28T01:48:42.160Z,12.50
2019-05-28T01:51:13.083Z,12.60
2019-05-28T01:53:43.918Z,12.60
2019-05-28T01:56:14.814Z,12.70
2019-05-28T01:58:45.634Z,12.60
2019-05-28T02:01:16.381Z,12.50
2019-05-28T02:03:47.266Z,12.50
2019-05-28T02:06:18.030Z,12.50
2019-05-28T02:08:49.974Z,12.60
2019-05-28T02:11:20.822Z,12.60
2019-05-28T02:13:51.642Z,12.40
2019-05-28T02:16:22.409Z,12.20
2019-05-28T02:18:53.214Z,12.10
2019-05-28T02:21:24.175Z,12.00
2019-05-28T02:23:54.927Z,11.90
2019-05-28T02:26:25.862Z,11.80
2019-05-28T02:28:56.741Z,11.80
2019-05-28T02:31:28.345Z,11.80
2019-05-28T02:34:01.151Z,11.80
2019-05-28T02:36:32.043Z,11.80
2019-05-28T02:39:02.788Z,11.80
2019-05-28T02:41:34.336Z,11.80
2019-05-28T02:44:05.386Z,11.80
2019-05-28T02:46:36.290Z,11.90
2019-05-28T02:49:07.078Z,11.90
2019-05-28T02:51:38.113Z,12.00
2019-05-28T02:54:09.016Z,12.00
2019-05-28T02:56:41.944Z,12.00
2019-05-28T02:59:17.276Z,12.00
2019-05-28T03:01:50.726Z,12.00
2019-05-28T03:04:24.239Z,12.00
2019-05-28T03:06:57.370Z,12.10
2019-05-28T03:09:29.362Z,12.10
2019-05-28T03:12:00.184Z,12.20
2019-05-28T03:14:30.957Z,12.20
2019-05-28T03:17:04.308Z,12.20
2019-05-28T03:19:36.983Z,12.10
2019-05-28T03:22:10.264Z,12.10
2019-05-28T03:24:43.981Z,12.10
2019-05-28T03:27:14.951Z,12.10
2019-05-28T03:29:45.701Z,12.10
2019-05-28T03:32:16.542Z,12.00
2019-05-28T03:34:47.342Z,11.90
2019-05-28T03:37:20.112Z,11.90
2019-05-28T03:39:53.132Z,11.90
2019-05-28T03:42:24.319Z,11.90
2019-05-28T03:44:55.061Z,12.00
2019-05-28T03:47:25.846Z,12.00
2019-05-28T03:49:57.238Z,12.00
2019-05-28T03:52:28.150Z,11.90
2019-05-28T03:54:58.906Z,11.80
2019-05-28T03:57:29.700Z,11.80
2019-05-28T04:00:00.460Z,11.80
2019-05-28T04:02:31.278Z,11.90
2019-05-28T04:05:02.138Z,11.90
2019-05-28T04:07:32.988Z,11.90
2019-05-28T04:10:03.876Z,11.80
2019-05-28T04:12:34.789Z,11.70
2019-05-28T04:15:06.495Z,11.60
2019-05-28T04:17:37.303Z,11.50
2019-05-28T04:20:10.543Z,11.50
2019-05-28T04:22:41.428Z,11.40
2019-05-28T04:25:12.460Z,11.40
2019-05-28T04:27:43.239Z,11.50
2019-05-28T04:30:15.465Z,11.50
2019-05-28T04:32:46.247Z,11.60
2019-05-28T04:35:17.008Z,11.70
2019-05-28T04:37:47.761Z,11.80
2019-05-28T04:40:18.529Z,11.90
2019-05-28T04:42:49.379Z,11.90
2019-05-28T04:45:20.143Z,11.90
2019-05-28T04:47:50.931Z,11.90
2019-05-28T04:50:22.936Z,11.90
2019-05-28T04:52:53.716Z,11.90
2019-05-28T04:55:24.524Z,12.00
2019-05-28T04:57:55.383Z,12.00
2019-05-28T05:00:26.250Z,12.00
2019-05-28T05:02:59.935Z,12.10
2019-05-28T05:05:29.579Z,12.10
2019-05-28T05:08:00.428Z,12.20
2019-05-28T05:10:31.231Z,12.20
2019-05-28T05:13:02.210Z,12.20
2019-05-28T05:15:33.117Z,12.30
2019-05-28T05:18:04.067Z,12.30
2019-05-28T05:20:34.950Z,12.30
2019-05-28T05:23:05.843Z,12.30
2019-05-28T05:25:36.815Z,12.30
2019-05-28T05:28:07.772Z,12.40
2019-05-28T05:30:38.629Z,12.40
2019-05-28T05:33:20.013Z,12.40
2019-05-28T05:35:43.095Z,12.40
2019-05-28T05:38:14.997Z,12.50
2019-05-28T05:40:45.746Z,12.50
2019-05-28T05:43:16.673Z,12.50
2019-05-28T05:45:47.430Z,12.50
2019-05-28T05:48:21.963Z,12.50
2019-05-28T05:50:52.839Z,12.30
2019-05-28T05:53:23.671Z,12.30
2019-05-28T05:55:54.510Z,12.30
2019-05-28T05:58:25.343Z,12.30
2019-05-28T06:00:56.192Z,12.30
2019-05-28T06:03:39.646Z,12.30
2019-05-28T06:06:00.390Z,12.40
2019-05-28T06:08:31.170Z,12.40
2019-05-28T06:11:01.959Z,12.40
2019-05-28T06:13:32.904Z,12.50
2019-05-28T06:16:03.814Z,12.50
2019-05-28T06:18:34.604Z,12.50
2019-05-28T06:21:13.180Z,12.60
2019-05-28T06:23:39.271Z,12.60
2019-05-28T06:26:10.157Z,12.60
2019-05-28T06:28:40.938Z,12.70
2019-05-28T06:31:11.794Z,12.70
2019-05-28T06:33:55.670Z,12.70
2019-05-28T06:36:15.270Z,12.80
2019-05-28T06:38:46.133Z,12.80
2019-05-28T06:41:16.920Z,12.80
2019-05-28T06:43:47.836Z,12.80
2019-05-28T06:46:18.627Z,12.90
2019-05-28T06:48:49.557Z,12.90
2019-05-28T06:51:20.370Z,12.90
2019-05-28T06:53:51.187Z,12.90
2019-05-28T06:56:22.020Z,13.00
2019-05-28T06:58:53.284Z,13.00
2019-05-28T07:01:24.307Z,13.00
2019-05-28T07:04:12.465Z,13.00
2019-05-28T07:06:28.557Z,13.00
2019-05-28T07:08:59.401Z,13.00
2019-05-28T07:11:30.291Z,12.80
2019-05-28T07:14:01.166Z,12.70
2019-05-28T07:16:31.999Z,12.40
2019-05-28T07:19:02.774Z,12.30
2019-05-28T07:21:34.707Z,12.30
2019-05-28T07:24:05.671Z,12.20
2019-05-28T07:26:39.429Z,12.10
2019-05-28T07:29:10.294Z,12.10
2019-05-28T07:31:41.406Z,12.10
2019-05-28T07:34:29.658Z,12.00
2019-05-28T07:36:48.500Z,12.00
2019-05-28T07:39:19.296Z,12.00
2019-05-28T07:41:50.094Z,12.00
2019-05-28T07:44:20.878Z,12.00
2019-05-28T07:46:51.752Z,11.90
2019-05-28T07:49:22.526Z,11.90
2019-05-28T07:51:53.478Z,11.90
2019-05-28T07:54:24.271Z,12.00
2019-05-28T07:56:55.127Z,12.00
2019-05-28T07:59:26.853Z,12.10
2019-05-28T08:01:57.772Z,12.20
2019-05-28T08:04:28.710Z,12.30
2019-05-28T08:06:59.487Z,12.30
2019-05-28T08:09:30.381Z,12.30
2019-05-28T08:12:01.239Z,12.40
2019-05-28T08:14:32.112Z,12.40
2019-05-28T08:17:02.957Z,12.50
2019-05-28T08:19:33.727Z,12.60
2019-05-28T08:22:05.918Z,12.70
2019-05-28T08:24:36.792Z,12.70
2019-05-28T08:27:07.577Z,12.80
2019-05-28T08:29:39.853Z,12.90
2019-05-28T08:32:10.894Z,13.00
2019-05-28T08:34:41.723Z,13.00
2019-05-28T08:37:12.574Z,13.00
2019-05-28T08:39:43.652Z,13.00
2019-05-28T08:42:14.443Z,13.10
2019-05-28T08:44:45.323Z,13.10
2019-05-28T08:47:16.154Z,13.20
2019-05-28T08:49:48.787Z,13.20
2019-05-28T08:52:19.600Z,13.30
2019-05-28T08:54:51.251Z,13.30
2019-05-28T08:57:22.267Z,13.30
2019-05-28T08:59:53.959Z,13.40
2019-05-28T09:02:28.266Z,13.40
2019-05-28T09:04:57.362Z,13.50
2019-05-28T09:07:28.298Z,13.60
2019-05-28T09:09:59.171Z,13.70
2019-05-28T09:12:29.962Z,13.70
2019-05-28T09:15:00.767Z,13.80
2019-05-28T09:17:31.652Z,13.90
2019-05-28T09:20:02.594Z,13.90
2019-05-28T09:22:33.576Z,13.90
2019-05-28T09:25:04.931Z,14.00
2019-05-28T09:27:37.100Z,14.00
2019-05-28T09:30:09.328Z,14.10
2019-05-28T09:32:40.419Z,14.10
2019-05-28T09:35:11.438Z,14.20
2019-05-28T09:37:45.293Z,14.30
2019-05-28T09:40:17.887Z,14.40
2019-05-28T09:42:48.684Z,14.40
2019-05-28T09:45:22.927Z,14.50
2019-05-28T09:47:55.173Z,14.50
2019-05-28T09:50:30.403Z,14.60
2019-05-28T09:52:57.336Z,14.80
2019-05-28T09:55:28.199Z,14.90
2019-05-28T09:57:59.074Z,15.10
2019-05-28T10:00:32.353Z,15.20
2019-05-28T10:03:03.176Z,15.30
2019-05-28T10:05:34.156Z,15.30
2019-05-28T10:08:05.191Z,15.40
2019-05-28T10:10:36.063Z,15.50
2019-05-28T10:13:06.871Z,15.80
2019-05-28T10:15:39.845Z,16.00
2019-05-28T10:18:10.769Z,16.00
2019-05-28T10:20:41.549Z,16.20
2019-05-28T10:23:14.169Z,16.30
2019-05-28T10:25:44.976Z,16.40
2019-05-28T10:28:15.748Z,16.50
2019-05-28T10:30:46.573Z,16.70
2019-05-28T10:33:17.384Z,16.80
2019-05-28T10:35:48.168Z,16.90
2019-05-28T10:38:19.219Z,17.10
2019-05-28T10:40:50.044Z,17.30
2019-05-28T10:43:20.915Z,17.40
2019-05-28T10:45:53.244Z,17.30
2019-05-28T10:48:24.354Z,17.20
2019-05-28T10:50:55.286Z,17.10
2019-05-28T10:53:26.138Z,16.90
2019-05-28T10:55:56.945Z,16.80
2019-05-28T10:58:27.747Z,16.70
2019-05-28T11:00:58.749Z,16.60
2019-05-28T11:03:30.685Z,16.50
2019-05-28T11:06:01.495Z,16.40
2019-05-28T11:08:32.322Z,16.20
2019-05-28T11:11:04.179Z,16.00
2019-05-28T11:13:49.985Z,15.80
2019-05-28T11:16:07.801Z,15.80
2019-05-28T11:18:38.800Z,15.70
2019-05-28T11:21:10.243Z,15.70
2019-05-28T11:23:41.238Z,15.70
2019-05-28T11:26:12.112Z,15.60
2019-05-28T11:28:42.992Z,15.60
2019-05-28T11:31:13.790Z,15.60
2019-05-28T11:33:44.550Z,15.50
2019-05-28T11:36:15.346Z,15.50
2019-05-28T11:38:47.220Z,15.40
2019-05-28T11:41:18.233Z,15.40
2019-05-28T11:43:49.395Z,15.30
2019-05-28T11:46:20.460Z,15.30
2019-05-28T11:48:51.406Z,15.30
2019-05-28T11:51:22.203Z,15.30
2019-05-28T11:53:53.056Z,15.10
2019-05-28T11:56:23.833Z,15.00
2019-05-28T11:58:54.652Z,14.80
2019-05-28T12:01:34.275Z,14.60
2019-05-28T12:03:58.182Z,14.50
2019-05-28T12:06:29.001Z,14.40
2019-05-28T12:08:59.797Z,14.20
2019-05-28T12:11:30.663Z,14.10
2019-05-28T12:14:01.560Z,14.10
2019-05-28T12:16:32.435Z,14.10
2019-05-28T12:19:03.411Z,14.30
2019-05-28T12:21:34.207Z,14.40
2019-05-28T12:24:05.236Z,14.60
2019-05-28T12:26:37.240Z,14.70
2019-05-28T12:29:08.122Z,14.80
2019-05-28T12:31:38.897Z,14.90
2019-05-28T12:34:11.534Z,15.00
2019-05-28T12:36:42.393Z,15.10
2019-05-28T12:39:13.230Z,15.20
2019-05-28T12:41:44.000Z,15.30
2019-05-28T12:44:17.394Z,15.40
2019-05-28T12:46:47.403Z,15.50
2019-05-28T12:49:18.367Z,15.60
2019-05-28T12:51:49.358Z,15.70
2019-05-28T12:54:20.286Z,15.80
2019-05-28T12:56:51.176Z,16.00
2019-05-28T12:59:22.246Z,16.10
2019-05-28T13:01:53.126Z,16.20
2019-05-28T13:04:23.997Z,16.30
2019-05-28T13:06:55.088Z,16.30
2019-05-28T13:09:26.144Z,16.40
2019-05-28T13:11:56.974Z,16.50
2019-05-28T13:14:28.726Z,16.50
2019-05-28T13:16:59.535Z,16.50
2019-05-28T13:19:31.392Z,16.60
2019-05-28T13:22:02.205Z,16.60
2019-05-28T13:24:32.984Z,16.60
2019-05-28T13:27:17.465Z,16.60
2019-05-28T13:29:36.393Z,16.70
2019-05-28T13:32:08.716Z,16.90
2019-05-28T13:34:39.910Z,16.90
2019-05-28T13:37:10.844Z,17.00
2019-05-28T13:39:43.169Z,17.00
2019-05-28T13:42:14.192Z,16.90
2019-05-28T13:44:45.118Z,16.70
2019-05-28T13:47:32.478Z,16.60
2019-05-28T13:49:48.530Z,16.50
2019-05-28T13:52:19.280Z,16.40
2019-05-28T13:54:50.159Z,16.40
2019-05-28T13:57:21.150Z,16.30
2019-05-28T13:59:58.302Z,16.30
2019-05-28T14:02:24.415Z,16.10
2019-05-28T14:04:55.302Z,15.60
2019-05-28T14:07:26.216Z,15.00
2019-05-28T14:09:58.184Z,14.90
2019-05-28T14:12:28.982Z,14.80
2019-05-28T14:14:59.909Z,14.70
2019-05-28T14:17:30.789Z,14.70
2019-05-28T14:20:01.775Z,14.60
2019-05-28T14:22:34.371Z,14.40
2019-05-28T14:25:05.941Z,14.40
2019-05-28T14:27:37.067Z,14.30
2019-05-28T14:30:08.326Z,14.20
2019-05-28T14:32:39.187Z,14.10
2019-05-28T14:35:10.499Z,13.90
2019-05-28T14:37:41.300Z,13.90
2019-05-28T14:40:14.185Z,13.80
2019-05-28T14:42:44.958Z,13.80
2019-05-28T14:45:16.371Z,13.90
2019-05-28T14:47:47.177Z,13.90
2019-05-28T14:50:18.287Z,13.90
2019-05-28T14:52:49.278Z,13.90
2019-05-28T14:55:20.465Z,13.90
2019-05-28T14:57:51.442Z,13.90
2019-05-28T15:00:22.451Z,13.90
2019-05-28T15:02:53.567Z,13.90
2019-05-28T15:05:24.371Z,13.90
2019-05-28T15:07:55.204Z,13.90
2019-05-28T15:10:27.436Z,13.90
2019-05-28T15:12:58.317Z,14.00
2019-05-28T15:15:36.089Z,14.10
2019-05-28T15:18:01.936Z,14.10
2019-05-28T15:20:32.960Z,14.10
2019-05-28T15:23:04.171Z,14.10
2019-05-28T15:25:36.491Z,14.10
2019-05-28T15:28:07.565Z,14.10
2019-05-28T15:30:38.494Z,14.10
2019-05-28T15:33:09.414Z,14.10
2019-05-28T15:35:41.399Z,14.20
2019-05-28T15:38:12.483Z,14.10
2019-05-28T15:40:43.310Z,14.20
2019-05-28T15:43:14.111Z,14.20
2019-05-28T15:45:44.902Z,14.20
2019-05-28T15:48:15.686Z,14.20
2019-05-28T15:50:46.591Z,14.10
2019-05-28T15:53:17.409Z,14.00
2019-05-28T15:55:48.210Z,14.10
2019-05-28T15:58:19.041Z,14.00
2019-05-28T16:00:49.897Z,14.00
2019-05-28T16:03:20.874Z,14.00
2019-05-28T16:05:51.773Z,13.90
2019-05-28T16:08:22.725Z,13.90
2019-05-28T16:10:53.546Z,13.90
2019-05-28T16:13:24.437Z,13.70
2019-05-28T16:15:55.359Z,13.60
2019-05-28T16:18:27.130Z,13.60
2019-05-28T16:20:57.935Z,13.60
2019-05-28T16:23:28.730Z,13.60
2019-05-28T16:25:59.626Z,13.60
2019-05-28T16:28:31.642Z,13.50
2019-05-28T16:31:12.497Z,13.60
2019-05-28T16:33:35.173Z,13.50
2019-05-28T16:36:06.200Z,13.50
2019-05-28T16:38:37.271Z,13.40
2019-05-28T16:41:08.150Z,13.30
2019-05-28T16:43:39.040Z,13.30
2019-05-28T16:46:10.650Z,13.30
2019-05-28T16:48:41.750Z,13.30
2019-05-28T16:51:13.703Z,13.30
2019-05-28T16:53:44.600Z,13.20
2019-05-28T16:56:15.414Z,13.20
2019-05-28T16:58:46.341Z,13.20
2019-05-28T17:01:22.191Z,13.20
2019-05-28T17:03:49.829Z,13.20
2019-05-28T17:06:20.660Z,13.30
2019-05-28T17:08:52.474Z,13.40
2019-05-28T17:11:28.043Z,13.40
2019-05-28T17:13:57.992Z,13.40
2019-05-28T17:16:29.930Z,13.50
2019-05-28T17:19:00.974Z,13.50
2019-05-28T17:21:31.806Z,13.50
2019-05-28T17:24:04.119Z,13.50
2019-05-28T17:26:35.604Z,13.50
2019-05-28T17:29:06.576Z,13.60
2019-05-28T17:31:37.370Z,13.60
2019-05-28T17:34:08.439Z,13.50
2019-05-28T17:36:39.323Z,13.50
2019-05-28T17:39:11.346Z,13.40
2019-05-28T17:41:42.176Z,13.40
2019-05-28T17:44:13.180Z,13.40
2019-05-28T17:46:44.110Z,13.30
2019-05-28T17:49:15.322Z,13.20
2019-05-28T17:51:46.533Z,13.20
2019-05-28T17:54:17.533Z,13.10
2019-05-28T17:56:48.420Z,13.10
2019-05-28T17:59:19.236Z,13.10
2019-05-28T18:01:50.297Z,13.00
2019-05-28T18:04:23.888Z,13.00
2019-05-28T18:06:54.951Z,13.00
2019-05-28T18:09:25.888Z,12.90
2019-05-28T18:11:57.787Z,12.90
2019-05-28T18:14:28.810Z,12.80
2019-05-28T18:16:59.770Z,12.80
2019-05-28T18:19:31.829Z,12.70
2019-05-28T18:22:02.771Z,12.70
2019-05-28T18:24:34.723Z,12.70
2019-05-28T18:27:05.795Z,12.70
2019-05-28T18:29:39.439Z,12.70
2019-05-28T18:32:10.443Z,12.70
2019-05-28T18:34:41.280Z,12.60
2019-05-28T18:37:12.273Z,12.60
2019-05-28T18:39:44.215Z,12.60
2019-05-28T18:42:15.147Z,12.60
2019-05-28T18:44:46.010Z,12.60
2019-05-28T18:47:17.062Z,12.60
2019-05-28T18:49:47.934Z,12.60
2019-05-28T18:52:18.867Z,12.60
2019-05-28T18:54:50.214Z,12.60
2019-05-28T18:57:21.199Z,12.60
2019-05-28T19:47:34.206Z,12.40
2019-05-28T19:50:05.771Z,12.40
2019-05-28T20:01:49.120Z,12.30
2019-05-28T20:04:20.582Z,12.30
2019-05-28T20:06:51.481Z,12.30
2019-05-28T20:09:22.523Z,12.30
2019-05-28T20:12:10.029Z,12.20
2019-05-28T20:14:27.087Z,12.20
2019-05-28T20:16:58.335Z,12.20
2019-05-28T20:19:29.385Z,12.10
2019-05-28T20:22:00.426Z,12.10
2019-05-28T20:24:31.348Z,12.10
2019-05-28T20:27:03.438Z,12.10
2019-05-28T20:29:34.533Z,12.10
2019-05-28T20:32:07.300Z,12.10
2019-05-28T20:34:38.857Z,12.00
2019-05-28T20:37:10.064Z,12.00
2019-05-28T20:39:41.230Z,12.00
2019-05-28T20:42:26.134Z,12.00
2019-05-28T20:44:46.014Z,12.00
2019-05-28T20:47:16.973Z,11.90
2019-05-28T20:49:47.989Z,11.90
2019-05-28T20:54:57.299Z,11.80
2019-05-28T20:57:29.922Z,11.80
2019-05-28T21:00:07.781Z,11.80
2019-05-28T21:02:45.103Z,11.80
2019-05-28T21:05:24.387Z,11.70
2019-05-28T21:07:56.231Z,11.70
2019-05-28T21:10:27.230Z,11.60
2019-05-28T21:12:58.979Z,11.60
2019-05-28T21:15:30.128Z,11.50
2019-05-28T21:18:01.112Z,11.40
2019-05-28T21:20:32.036Z,11.30
2019-05-28T21:23:04.114Z,11.30
2019-05-28T21:25:35.009Z,11.20
2019-05-28T21:28:05.961Z,11.20
2019-05-28T21:30:36.872Z,11.20
2019-05-28T21:33:07.711Z,11.10
2019-05-28T21:35:38.927Z,11.10
2019-05-28T21:38:09.794Z,11.10
2019-05-28T21:40:40.806Z,11.00
2019-05-28T21:43:11.748Z,11.00
2019-05-28T21:45:43.571Z,10.90
2019-05-28T21:48:14.459Z,10.90
2019-05-28T21:50:48.243Z,10.80
2019-05-28T21:53:19.160Z,10.80
2019-05-28T21:55:49.979Z,10.60
2019-05-28T21:58:20.963Z,10.60
2019-05-28T22:00:59.987Z,10.50
2019-05-28T22:03:30.995Z,10.50
2019-05-28T22:06:03.649Z,10.40
2019-05-28T22:08:34.628Z,10.40
2019-05-28T22:11:05.848Z,10.30
2019-05-28T22:13:37.573Z,10.30
2019-05-28T22:16:08.646Z,10.20
2019-05-28T22:18:40.696Z,10.20
2019-05-28T22:21:11.487Z,10.10
2019-05-28T22:23:42.303Z,10.10
2019-05-28T22:26:13.125Z,10.00
2019-05-28T22:28:44.043Z,9.90
2019-05-28T22:31:15.137Z,9.90
2019-05-28T22:33:46.063Z,9.90
2019-05-28T22:36:17.282Z,9.90
2019-05-28T22:39:06.661Z,9.90
2019-05-28T22:41:39.472Z,9.80
2019-05-28T22:44:10.836Z,9.80
2019-05-28T22:46:41.582Z,9.70
2019-05-28T22:49:12.347Z,9.70
2019-05-28T22:51:43.229Z,9.70
2019-05-28T22:54:14.114Z,9.60
2019-05-28T22:56:45.160Z,9.60
2019-05-28T22:59:15.973Z,9.60
2019-05-28T23:01:46.819Z,9.50
2019-05-28T23:04:17.718Z,9.50
2019-05-28T23:06:48.564Z,9.40
2019-05-28T23:09:19.354Z,9.40
2019-05-28T23:11:50.247Z,9.40
2019-05-28T23:14:21.041Z,9.30
2019-05-28T23:16:53.043Z,9.30
2019-05-28T23:19:23.943Z,9.20
2019-05-28T23:21:54.728Z,9.20
2019-05-28T23:24:25.589Z,9.10
2019-05-28T23:26:56.401Z,9.10
2019-05-28T23:29:27.175Z,9.00
2019-05-28T23:31:57.962Z,9.00
2019-05-28T23:34:28.830Z,9.00
2019-05-28T23:36:59.643Z,8.90
2019-05-28T23:39:30.515Z,8.90
2019-05-28T23:42:01.329Z,8.80
2019-05-28T23:44:32.154Z,8.80
2019-05-28T23:47:03.881Z,8.80
2019-05-28T23:49:34.838Z,8.70
2019-05-28T23:52:08.522Z,8.70
2019-05-28T23:54:39.501Z,8.70
2019-05-28T23:57:11.919Z,8.60
2019-05-28T23:59:42.864Z,8.60
